sensor_id;sensor_type;location;lat;lon;timestamp;P1;durP1;ratioP1;P2;durP2;ratioP2
66575;SDS011;53428;47.686;16.584;2023-12-14T00:04:38;36.20;;;18.25;;
66575;SDS011;53428;47.686;16.584;2023-12-14T00:09:39;28.58;;;18.25;;
66575;SDS011;53428;47.686;16.584;2023-12-14T00:14:39;32.47;;;16.33;;
66575;SDS011;53428;47.686;16.584;2023-12-14T00:19:38;29.20;;;18.77;;
66575;SDS011;53428;47.686;16.584;2023-12-14T00:24:37;27.45;;;16.10;;
66575;SDS011;53428;47.686;16.584;2023-12-14T00:29:37;35.17;;;16.33;;
66575;SDS011;53428;47.686;16.584;2023-12-14T00:34:36;33.63;;;17.38;;
66575;SDS011;53428;47.686;16.584;2023-12-14T00:39:36;30.83;;;18.20;;
66575;SDS011;53428;47.686;16.584;2023-12-14T00:44:35;31.58;;;19.48;;
66575;SDS011;53428;47.686;16.584;2023-12-14T00:49:34;32.83;;;18.83;;
66575;SDS011;53428;47.686;16.584;2023-12-14T00:54:33;30.65;;;16.33;;
66575;SDS011;53428;47.686;16.584;2023-12-14T00:59:33;29.48;;;15.65;;
66575;SDS011;53428;47.686;16.584;2023-12-14T01:04:32;32.22;;;16.65;;
66575;SDS011;53428;47.686;16.584;2023-12-14T01:09:31;29.27;;;15.80;;
66575;SDS011;53428;47.686;16.584;2023-12-14T01:14:30;29.55;;;17.08;;
66575;SDS011;53428;47.686;16.584;2023-12-14T01:19:30;32.80;;;17.63;;
66575;SDS011;53428;47.686;16.584;2023-12-14T01:24:29;31.80;;;19.38;;
66575;SDS011;53428;47.686;16.584;2023-12-14T01:29:28;35.50;;;18.15;;
66575;SDS011;53428;47.686;16.584;2023-12-14T01:34:28;27.02;;;16.55;;
66575;SDS011;53428;47.686;16.584;2023-12-14T01:39:27;25.10;;;14.90;;
66575;SDS011;53428;47.686;16.584;2023-12-14T01:44:26;28.45;;;15.98;;
66575;SDS011;53428;47.686;16.584;2023-12-14T01:49:26;25.88;;;15.02;;
66575;SDS011;53428;47.686;16.584;2023-12-14T01:54:25;25.25;;;15.85;;
66575;SDS011;53428;47.686;16.584;2023-12-14T01:59:24;27.85;;;15.20;;
66575;SDS011;53428;47.686;16.584;2023-12-14T02:04:24;26.67;;;15.98;;
66575;SDS011;53428;47.686;16.584;2023-12-14T02:09:24;28.58;;;15.75;;
66575;SDS011;53428;47.686;16.584;2023-12-14T02:14:23;22.77;;;14.02;;
66575;SDS011;53428;47.686;16.584;2023-12-14T02:19:23;22.20;;;14.02;;
66575;SDS011;53428;47.686;16.584;2023-12-14T02:24:22;24.38;;;13.73;;
66575;SDS011;53428;47.686;16.584;2023-12-14T02:29:21;25.05;;;14.45;;
66575;SDS011;53428;47.686;16.584;2023-12-14T02:34:21;24.15;;;14.15;;
66575;SDS011;53428;47.686;16.584;2023-12-14T02:39:20;26.55;;;16.15;;
66575;SDS011;53428;47.686;16.584;2023-12-14T02:44:20;25.27;;;16.20;;
66575;SDS011;53428;47.686;16.584;2023-12-14T02:49:19;21.73;;;13.25;;
66575;SDS011;53428;47.686;16.584;2023-12-14T02:54:19;23.55;;;14.35;;
66575;SDS011;53428;47.686;16.584;2023-12-14T02:59:19;20.65;;;13.73;;
66575;SDS011;53428;47.686;16.584;2023-12-14T03:04:18;22.65;;;14.25;;
66575;SDS011;53428;47.686;16.584;2023-12-14T03:09:17;23.75;;;13.65;;
66575;SDS011;53428;47.686;16.584;2023-12-14T03:14:18;21.98;;;12.98;;
66575;SDS011;53428;47.686;16.584;2023-12-14T03:19:17;22.50;;;14.68;;
66575;SDS011;53428;47.686;16.584;2023-12-14T03:24:16;22.95;;;13.35;;
66575;SDS011;53428;47.686;16.584;2023-12-14T03:29:16;26.33;;;15.00;;
66575;SDS011;53428;47.686;16.584;2023-12-14T03:34:16;20.17;;;13.13;;
66575;SDS011;53428;47.686;16.584;2023-12-14T03:39:16;21.02;;;13.25;;
66575;SDS011;53428;47.686;16.584;2023-12-14T03:44:15;22.48;;;13.15;;
66575;SDS011;53428;47.686;16.584;2023-12-14T03:49:14;23.25;;;13.02;;
66575;SDS011;53428;47.686;16.584;2023-12-14T03:54:14;23.35;;;12.52;;
66575;SDS011;53428;47.686;16.584;2023-12-14T03:59:13;17.58;;;11.30;;
66575;SDS011;53428;47.686;16.584;2023-12-14T04:04:12;11.18;;;8.00;;
66575;SDS011;53428;47.686;16.584;2023-12-14T04:09:12;9.00;;;6.38;;
66575;SDS011;53428;47.686;16.584;2023-12-14T04:14:11;5.35;;;4.82;;
66575;SDS011;53428;47.686;16.584;2023-12-14T04:19:10;7.40;;;2.80;;
66575;SDS011;53428;47.686;16.584;2023-12-14T04:24:10;5.00;;;1.70;;
66575;SDS011;53428;47.686;16.584;2023-12-14T04:29:11;1.75;;;1.25;;
66575;SDS011;53428;47.686;16.584;2023-12-14T04:34:10;1.55;;;1.17;;
66575;SDS011;53428;47.686;16.584;2023-12-14T04:39:14;4.90;;;2.60;;
66575;SDS011;53428;47.686;16.584;2023-12-14T04:44:14;5.35;;;4.07;;
66575;SDS011;53428;47.686;16.584;2023-12-14T04:49:13;3.15;;;2.58;;
66575;SDS011;53428;47.686;16.584;2023-12-14T04:54:13;2.80;;;2.40;;
66575;SDS011;53428;47.686;16.584;2023-12-14T04:59:12;1.40;;;1.05;;
66575;SDS011;53428;47.686;16.584;2023-12-14T05:04:11;0.77;;;0.77;;
66575;SDS011;53428;47.686;16.584;2023-12-14T05:09:11;4.97;;;1.50;;
66575;SDS011;53428;47.686;16.584;2023-12-14T05:14:10;1.45;;;1.23;;
66575;SDS011;53428;47.686;16.584;2023-12-14T05:19:09;2.97;;;1.20;;
66575;SDS011;53428;47.686;16.584;2023-12-14T05:24:09;0.93;;;0.93;;
66575;SDS011;53428;47.686;16.584;2023-12-14T05:29:08;0.85;;;0.85;;
66575;SDS011;53428;47.686;16.584;2023-12-14T05:34:07;1.13;;;1.02;;
66575;SDS011;53428;47.686;16.584;2023-12-14T05:39:07;0.90;;;0.90;;
66575;SDS011;53428;47.686;16.584;2023-12-14T05:44:06;1.58;;;1.42;;
66575;SDS011;53428;47.686;16.584;2023-12-14T05:49:06;1.40;;;1.30;;
66575;SDS011;53428;47.686;16.584;2023-12-14T05:54:05;1.85;;;1.20;;
66575;SDS011;53428;47.686;16.584;2023-12-14T05:59:05;1.02;;;0.95;;
66575;SDS011;53428;47.686;16.584;2023-12-14T06:04:04;1.55;;;1.10;;
66575;SDS011;53428;47.686;16.584;2023-12-14T06:09:04;3.50;;;1.13;;
66575;SDS011;53428;47.686;16.584;2023-12-14T06:14:06;1.38;;;0.80;;
66575;SDS011;53428;47.686;16.584;2023-12-14T06:19:05;3.13;;;1.40;;
66575;SDS011;53428;47.686;16.584;2023-12-14T06:24:04;1.25;;;1.02;;
66575;SDS011;53428;47.686;16.584;2023-12-14T06:29:04;1.90;;;1.05;;
66575;SDS011;53428;47.686;16.584;2023-12-14T06:34:03;1.20;;;1.10;;
66575;SDS011;53428;47.686;16.584;2023-12-14T06:39:03;1.52;;;1.20;;
66575;SDS011;53428;47.686;16.584;2023-12-14T06:44:03;1.55;;;1.20;;
66575;SDS011;53428;47.686;16.584;2023-12-14T06:49:03;3.47;;;1.30;;
66575;SDS011;53428;47.686;16.584;2023-12-14T06:54:02;3.50;;;2.35;;
66575;SDS011;53428;47.686;16.584;2023-12-14T06:59:02;14.93;;;7.18;;
66575;SDS011;53428;47.686;16.584;2023-12-14T07:04:01;9.25;;;4.95;;
66575;SDS011;53428;47.686;16.584;2023-12-14T07:09:02;6.28;;;2.58;;
66575;SDS011;53428;47.686;16.584;2023-12-14T07:14:02;2.92;;;2.20;;
66575;SDS011;53428;47.686;16.584;2023-12-14T07:19:01;3.88;;;2.25;;
66575;SDS011;53428;47.686;16.584;2023-12-14T07:24:00;2.50;;;1.85;;
66575;SDS011;53428;47.686;16.584;2023-12-14T07:29:00;2.35;;;1.65;;
66575;SDS011;53428;47.686;16.584;2023-12-14T07:33:59;1.85;;;1.30;;
66575;SDS011;53428;47.686;16.584;2023-12-14T07:38:58;1.65;;;1.23;;
66575;SDS011;53428;47.686;16.584;2023-12-14T07:43:59;2.42;;;1.77;;
66575;SDS011;53428;47.686;16.584;2023-12-14T07:48:59;1.88;;;0.98;;
66575;SDS011;53428;47.686;16.584;2023-12-14T07:53:58;3.70;;;1.30;;
66575;SDS011;53428;47.686;16.584;2023-12-14T07:58:57;1.15;;;1.00;;
66575;SDS011;53428;47.686;16.584;2023-12-14T08:03:57;6.68;;;1.33;;
66575;SDS011;53428;47.686;16.584;2023-12-14T08:08:56;3.47;;;1.13;;
66575;SDS011;53428;47.686;16.584;2023-12-14T08:13:58;3.53;;;2.00;;
66575;SDS011;53428;47.686;16.584;2023-12-14T08:18:58;4.57;;;2.17;;
66575;SDS011;53428;47.686;16.584;2023-12-14T08:23:57;3.42;;;2.42;;
66575;SDS011;53428;47.686;16.584;2023-12-14T08:28:56;3.83;;;2.42;;
66575;SDS011;53428;47.686;16.584;2023-12-14T08:33:56;2.40;;;1.85;;
66575;SDS011;53428;47.686;16.584;2023-12-14T08:38:55;3.15;;;1.73;;
66575;SDS011;53428;47.686;16.584;2023-12-14T08:43:54;3.38;;;1.63;;
66575;SDS011;53428;47.686;16.584;2023-12-14T08:48:54;1.63;;;1.23;;
66575;SDS011;53428;47.686;16.584;2023-12-14T08:53:54;3.85;;;1.38;;
66575;SDS011;53428;47.686;16.584;2023-12-14T08:58:53;1.52;;;1.15;;
66575;SDS011;53428;47.686;16.584;2023-12-14T09:03:52;3.92;;;2.45;;
66575;SDS011;53428;47.686;16.584;2023-12-14T09:08:51;4.50;;;2.67;;
66575;SDS011;53428;47.686;16.584;2023-12-14T09:13:51;2.97;;;2.10;;
66575;SDS011;53428;47.686;16.584;2023-12-14T09:18:50;2.85;;;2.03;;
66575;SDS011;53428;47.686;16.584;2023-12-14T09:23:49;8.57;;;4.25;;
66575;SDS011;53428;47.686;16.584;2023-12-14T09:28:49;11.18;;;4.40;;
66575;SDS011;53428;47.686;16.584;2023-12-14T09:33:48;13.50;;;6.35;;
66575;SDS011;53428;47.686;16.584;2023-12-14T09:38:47;6.82;;;2.80;;
66575;SDS011;53428;47.686;16.584;2023-12-14T09:43:47;14.70;;;5.88;;
66575;SDS011;53428;47.686;16.584;2023-12-14T09:48:46;20.85;;;6.35;;
66575;SDS011;53428;47.686;16.584;2023-12-14T09:53:46;20.40;;;6.32;;
66575;SDS011;53428;47.686;16.584;2023-12-14T09:58:46;3.80;;;1.80;;
66575;SDS011;53428;47.686;16.584;2023-12-14T10:03:45;4.85;;;1.95;;
66575;SDS011;53428;47.686;16.584;2023-12-14T10:08:53;9.93;;;4.13;;
66575;SDS011;53428;47.686;16.584;2023-12-14T10:18:56;5.82;;;2.83;;
66575;SDS011;53428;47.686;16.584;2023-12-14T10:23:57;7.47;;;3.38;;
66575;SDS011;53428;47.686;16.584;2023-12-14T10:28:57;6.05;;;2.47;;
66575;SDS011;53428;47.686;16.584;2023-12-14T10:33:56;2.55;;;1.20;;
66575;SDS011;53428;47.686;16.584;2023-12-14T10:38:57;3.30;;;1.77;;
66575;SDS011;53428;47.686;16.584;2023-12-14T10:43:57;1.90;;;1.05;;
66575;SDS011;53428;47.686;16.584;2023-12-14T10:48:57;2.67;;;0.70;;
66575;SDS011;53428;47.686;16.584;2023-12-14T10:53:56;1.63;;;1.25;;
66575;SDS011;53428;47.686;16.584;2023-12-14T10:58:56;2.22;;;1.50;;
66575;SDS011;53428;47.686;16.584;2023-12-14T11:03:58;1.48;;;0.82;;
66575;SDS011;53428;47.686;16.584;2023-12-14T11:08:59;2.55;;;0.57;;
66575;SDS011;53428;47.686;16.584;2023-12-14T11:14:05;0.65;;;0.60;;
66575;SDS011;53428;47.686;16.584;2023-12-14T11:19:23;1.25;;;0.30;;
66575;SDS011;53428;47.686;16.584;2023-12-14T11:24:24;1.08;;;0.30;;
66575;SDS011;53428;47.686;16.584;2023-12-14T11:29:24;2.38;;;0.88;;
66575;SDS011;53428;47.686;16.584;2023-12-14T11:34:24;0.55;;;0.55;;
66575;SDS011;53428;47.686;16.584;2023-12-14T11:39:24;0.68;;;0.68;;
66575;SDS011;53428;47.686;16.584;2023-12-14T11:44:25;0.73;;;0.63;;
66575;SDS011;53428;47.686;16.584;2023-12-14T11:49:25;0.63;;;0.55;;
66575;SDS011;53428;47.686;16.584;2023-12-14T11:54:25;4.53;;;0.90;;
66575;SDS011;53428;47.686;16.584;2023-12-14T11:59:26;0.98;;;0.70;;
66575;SDS011;53428;47.686;16.584;2023-12-14T12:04:25;1.20;;;0.80;;
66575;SDS011;53428;47.686;16.584;2023-12-14T12:09:33;1.80;;;0.88;;
66575;SDS011;53428;47.686;16.584;2023-12-14T12:14:37;0.98;;;0.60;;
66575;SDS011;53428;47.686;16.584;2023-12-14T12:19:37;2.60;;;0.90;;
66575;SDS011;53428;47.686;16.584;2023-12-14T12:24:36;0.85;;;0.55;;
66575;SDS011;53428;47.686;16.584;2023-12-14T12:29:36;0.82;;;0.80;;
66575;SDS011;53428;47.686;16.584;2023-12-14T12:34:35;1.42;;;1.00;;
66575;SDS011;53428;47.686;16.584;2023-12-14T12:39:35;2.63;;;0.98;;
66575;SDS011;53428;47.686;16.584;2023-12-14T12:44:34;0.95;;;0.65;;
66575;SDS011;53428;47.686;16.584;2023-12-14T12:49:33;1.15;;;0.80;;
66575;SDS011;53428;47.686;16.584;2023-12-14T12:54:33;1.88;;;1.35;;
66575;SDS011;53428;47.686;16.584;2023-12-14T12:59:32;2.13;;;1.65;;
66575;SDS011;53428;47.686;16.584;2023-12-14T13:04:32;5.53;;;2.97;;
66575;SDS011;53428;47.686;16.584;2023-12-14T13:09:31;1.48;;;1.23;;
66575;SDS011;53428;47.686;16.584;2023-12-14T13:14:31;3.10;;;1.15;;
66575;SDS011;53428;47.686;16.584;2023-12-14T13:19:30;0.85;;;0.85;;
66575;SDS011;53428;47.686;16.584;2023-12-14T13:24:29;2.03;;;1.27;;
66575;SDS011;53428;47.686;16.584;2023-12-14T13:29:29;6.35;;;3.38;;
66575;SDS011;53428;47.686;16.584;2023-12-14T13:34:33;11.40;;;3.50;;
66575;SDS011;53428;47.686;16.584;2023-12-14T13:39:32;1.33;;;0.98;;
66575;SDS011;53428;47.686;16.584;2023-12-14T13:44:33;5.35;;;2.67;;
66575;SDS011;53428;47.686;16.584;2023-12-14T13:49:33;0.65;;;0.65;;
66575;SDS011;53428;47.686;16.584;2023-12-14T13:54:32;5.03;;;0.77;;
66575;SDS011;53428;47.686;16.584;2023-12-14T13:59:32;1.00;;;0.70;;
66575;SDS011;53428;47.686;16.584;2023-12-14T14:04:31;1.10;;;1.00;;
66575;SDS011;53428;47.686;16.584;2023-12-14T14:09:30;2.25;;;1.27;;
66575;SDS011;53428;47.686;16.584;2023-12-14T14:14:31;3.42;;;1.20;;
66575;SDS011;53428;47.686;16.584;2023-12-14T14:19:30;2.85;;;1.48;;
66575;SDS011;53428;47.686;16.584;2023-12-14T14:24:30;5.25;;;1.13;;
66575;SDS011;53428;47.686;16.584;2023-12-14T14:29:30;0.70;;;0.70;;
66575;SDS011;53428;47.686;16.584;2023-12-14T14:34:29;4.70;;;0.70;;
66575;SDS011;53428;47.686;16.584;2023-12-14T14:39:29;1.65;;;1.00;;
66575;SDS011;53428;47.686;16.584;2023-12-14T14:44:28;0.93;;;0.80;;
66575;SDS011;53428;47.686;16.584;2023-12-14T14:49:27;2.55;;;1.45;;
66575;SDS011;53428;47.686;16.584;2023-12-14T14:54:27;1.75;;;1.30;;
66575;SDS011;53428;47.686;16.584;2023-12-14T14:59:26;3.08;;;1.27;;
66575;SDS011;53428;47.686;16.584;2023-12-14T15:04:28;2.92;;;0.90;;
66575;SDS011;53428;47.686;16.584;2023-12-14T15:09:28;0.93;;;0.80;;
66575;SDS011;53428;47.686;16.584;2023-12-14T15:14:27;0.73;;;0.65;;
66575;SDS011;53428;47.686;16.584;2023-12-14T15:19:27;1.60;;;1.13;;
66575;SDS011;53428;47.686;16.584;2023-12-14T15:24:26;1.15;;;1.05;;
66575;SDS011;53428;47.686;16.584;2023-12-14T15:29:26;1.67;;;1.25;;
66575;SDS011;53428;47.686;16.584;2023-12-14T15:34:25;1.45;;;1.05;;
66575;SDS011;53428;47.686;16.584;2023-12-14T15:39:24;4.03;;;1.90;;
66575;SDS011;53428;47.686;16.584;2023-12-14T15:44:23;2.15;;;1.23;;
66575;SDS011;53428;47.686;16.584;2023-12-14T15:49:23;1.70;;;1.13;;
66575;SDS011;53428;47.686;16.584;2023-12-14T15:54:22;2.30;;;1.30;;
66575;SDS011;53428;47.686;16.584;2023-12-14T15:59:21;1.75;;;1.40;;
66575;SDS011;53428;47.686;16.584;2023-12-14T16:04:20;2.13;;;1.30;;
66575;SDS011;53428;47.686;16.584;2023-12-14T16:09:20;4.40;;;1.23;;
66575;SDS011;53428;47.686;16.584;2023-12-14T16:14:19;1.75;;;0.80;;
66575;SDS011;53428;47.686;16.584;2023-12-14T16:19:18;0.95;;;0.77;;
66575;SDS011;53428;47.686;16.584;2023-12-14T16:24:19;6.72;;;1.30;;
66575;SDS011;53428;47.686;16.584;2023-12-14T16:29:19;5.10;;;2.10;;
66575;SDS011;53428;47.686;16.584;2023-12-14T16:34:18;1.73;;;1.10;;
66575;SDS011;53428;47.686;16.584;2023-12-14T16:39:18;3.25;;;1.55;;
66575;SDS011;53428;47.686;16.584;2023-12-14T16:44:18;3.60;;;1.63;;
66575;SDS011;53428;47.686;16.584;2023-12-14T16:49:17;1.65;;;1.52;;
66575;SDS011;53428;47.686;16.584;2023-12-14T16:54:16;3.60;;;2.13;;
66575;SDS011;53428;47.686;16.584;2023-12-14T16:59:15;2.85;;;2.25;;
66575;SDS011;53428;47.686;16.584;2023-12-14T17:04:15;1.95;;;1.67;;
66575;SDS011;53428;47.686;16.584;2023-12-14T17:09:14;3.53;;;2.45;;
66575;SDS011;53428;47.686;16.584;2023-12-14T17:14:14;3.10;;;2.13;;
66575;SDS011;53428;47.686;16.584;2023-12-14T17:19:13;4.53;;;2.88;;
66575;SDS011;53428;47.686;16.584;2023-12-14T17:24:12;3.10;;;2.30;;
66575;SDS011;53428;47.686;16.584;2023-12-14T17:29:13;3.95;;;2.72;;
66575;SDS011;53428;47.686;16.584;2023-12-14T17:34:12;5.72;;;3.15;;
66575;SDS011;53428;47.686;16.584;2023-12-14T17:39:11;6.60;;;3.55;;
66575;SDS011;53428;47.686;16.584;2023-12-14T17:44:11;3.67;;;2.80;;
66575;SDS011;53428;47.686;16.584;2023-12-14T17:49:11;3.65;;;3.03;;
66575;SDS011;53428;47.686;16.584;2023-12-14T17:54:11;5.10;;;3.20;;
66575;SDS011;53428;47.686;16.584;2023-12-14T17:59:11;4.25;;;3.72;;
66575;SDS011;53428;47.686;16.584;2023-12-14T18:04:10;5.65;;;4.18;;
66575;SDS011;53428;47.686;16.584;2023-12-14T18:09:10;5.07;;;3.50;;
66575;SDS011;53428;47.686;16.584;2023-12-14T18:14:09;14.45;;;4.18;;
66575;SDS011;53428;47.686;16.584;2023-12-14T18:19:09;4.38;;;3.25;;
66575;SDS011;53428;47.686;16.584;2023-12-14T18:24:09;4.65;;;3.53;;
66575;SDS011;53428;47.686;16.584;2023-12-14T18:29:08;6.55;;;4.60;;
66575;SDS011;53428;47.686;16.584;2023-12-14T18:34:08;6.38;;;4.47;;
66575;SDS011;53428;47.686;16.584;2023-12-14T18:39:09;9.65;;;4.35;;
66575;SDS011;53428;47.686;16.584;2023-12-14T18:44:08;7.50;;;4.47;;
66575;SDS011;53428;47.686;16.584;2023-12-14T18:49:08;6.53;;;3.97;;
66575;SDS011;53428;47.686;16.584;2023-12-14T18:54:08;11.82;;;5.25;;
66575;SDS011;53428;47.686;16.584;2023-12-14T18:59:10;7.30;;;4.47;;
66575;SDS011;53428;47.686;16.584;2023-12-14T19:04:10;6.15;;;4.63;;
66575;SDS011;53428;47.686;16.584;2023-12-14T19:09:09;6.70;;;4.47;;
66575;SDS011;53428;47.686;16.584;2023-12-14T19:14:09;12.23;;;5.03;;
66575;SDS011;53428;47.686;16.584;2023-12-14T19:19:09;7.03;;;4.80;;
66575;SDS011;53428;47.686;16.584;2023-12-14T19:24:09;8.25;;;4.53;;
66575;SDS011;53428;47.686;16.584;2023-12-14T19:29:09;10.98;;;5.10;;
66575;SDS011;53428;47.686;16.584;2023-12-14T19:34:08;8.05;;;5.75;;
66575;SDS011;53428;47.686;16.584;2023-12-14T19:39:08;8.05;;;5.30;;
66575;SDS011;53428;47.686;16.584;2023-12-14T19:44:08;5.63;;;4.47;;
66575;SDS011;53428;47.686;16.584;2023-12-14T19:49:08;9.80;;;6.53;;
66575;SDS011;53428;47.686;16.584;2023-12-14T19:54:08;8.60;;;5.60;;
66575;SDS011;53428;47.686;16.584;2023-12-14T19:59:08;8.82;;;6.35;;
66575;SDS011;53428;47.686;16.584;2023-12-14T20:04:08;7.97;;;5.72;;
66575;SDS011;53428;47.686;16.584;2023-12-14T20:09:08;8.15;;;5.55;;
66575;SDS011;53428;47.686;16.584;2023-12-14T20:14:08;10.35;;;6.40;;
66575;SDS011;53428;47.686;16.584;2023-12-14T20:19:08;8.68;;;5.63;;
66575;SDS011;53428;47.686;16.584;2023-12-14T20:24:08;7.35;;;5.60;;
66575;SDS011;53428;47.686;16.584;2023-12-14T20:29:08;6.80;;;6.10;;
66575;SDS011;53428;47.686;16.584;2023-12-14T20:34:08;7.38;;;5.68;;
66575;SDS011;53428;47.686;16.584;2023-12-14T20:39:07;5.60;;;4.68;;
66575;SDS011;53428;47.686;16.584;2023-12-14T20:44:07;7.28;;;5.45;;
66575;SDS011;53428;47.686;16.584;2023-12-14T20:49:06;5.57;;;4.97;;
66575;SDS011;53428;47.686;16.584;2023-12-14T20:54:05;6.10;;;4.22;;
66575;SDS011;53428;47.686;16.584;2023-12-14T20:59:05;5.20;;;3.75;;
66575;SDS011;53428;47.686;16.584;2023-12-14T21:04:04;5.30;;;3.92;;
66575;SDS011;53428;47.686;16.584;2023-12-14T21:09:05;4.45;;;3.35;;
66575;SDS011;53428;47.686;16.584;2023-12-14T21:14:04;5.35;;;3.40;;
66575;SDS011;53428;47.686;16.584;2023-12-14T21:19:03;4.78;;;3.80;;
66575;SDS011;53428;47.686;16.584;2023-12-14T21:24:02;6.25;;;3.97;;
66575;SDS011;53428;47.686;16.584;2023-12-14T21:29:02;5.35;;;4.18;;
66575;SDS011;53428;47.686;16.584;2023-12-14T21:34:04;8.10;;;5.13;;
66575;SDS011;53428;47.686;16.584;2023-12-14T21:39:04;7.88;;;5.50;;
66575;SDS011;53428;47.686;16.584;2023-12-14T21:44:03;7.65;;;5.43;;
66575;SDS011;53428;47.686;16.584;2023-12-14T21:49:02;6.78;;;5.53;;
66575;SDS011;53428;47.686;16.584;2023-12-14T21:54:01;7.20;;;5.93;;
66575;SDS011;53428;47.686;16.584;2023-12-14T21:59:01;8.00;;;5.95;;
66575;SDS011;53428;47.686;16.584;2023-12-14T22:04:00;9.73;;;6.35;;
66575;SDS011;53428;47.686;16.584;2023-12-14T22:09:02;8.85;;;6.55;;
66575;SDS011;53428;47.686;16.584;2023-12-14T22:14:01;8.00;;;6.22;;
66575;SDS011;53428;47.686;16.584;2023-12-14T22:19:00;8.75;;;6.18;;
66575;SDS011;53428;47.686;16.584;2023-12-14T22:24:00;8.00;;;5.85;;
66575;SDS011;53428;47.686;16.584;2023-12-14T22:28:59;9.52;;;6.90;;
66575;SDS011;53428;47.686;16.584;2023-12-14T22:33:58;9.45;;;6.63;;
66575;SDS011;53428;47.686;16.584;2023-12-14T22:38:58;10.20;;;6.18;;
66575;SDS011;53428;47.686;16.584;2023-12-14T22:43:58;11.27;;;7.78;;
66575;SDS011;53428;47.686;16.584;2023-12-14T22:48:57;16.25;;;8.00;;
66575;SDS011;53428;47.686;16.584;2023-12-14T22:53:57;11.13;;;7.18;;
66575;SDS011;53428;47.686;16.584;2023-12-14T22:58:56;10.43;;;7.57;;
66575;SDS011;53428;47.686;16.584;2023-12-14T23:03:55;9.30;;;7.20;;
66575;SDS011;53428;47.686;16.584;2023-12-14T23:08:54;8.13;;;6.70;;
66575;SDS011;53428;47.686;16.584;2023-12-14T23:13:54;11.73;;;8.00;;
66575;SDS011;53428;47.686;16.584;2023-12-14T23:18:54;10.55;;;7.53;;
66575;SDS011;53428;47.686;16.584;2023-12-14T23:23:54;10.07;;;7.28;;
66575;SDS011;53428;47.686;16.584;2023-12-14T23:28:53;13.82;;;8.50;;
66575;SDS011;53428;47.686;16.584;2023-12-14T23:33:52;11.57;;;7.97;;
66575;SDS011;53428;47.686;16.584;2023-12-14T23:38:52;13.02;;;8.07;;
66575;SDS011;53428;47.686;16.584;2023-12-14T23:43:51;9.73;;;7.05;;
66575;SDS011;53428;47.686;16.584;2023-12-14T23:48:53;11.15;;;7.95;;
66575;SDS011;53428;47.686;16.584;2023-12-14T23:53:52;9.82;;;6.03;;
66575;SDS011;53428;47.686;16.584;2023-12-14T23:58:52;10.25;;;7.78;;
